createdAt,value
2017-05-13T00:01:43.221Z,99939.67
2017-05-13T00:04:09.888Z,99931.08
2017-05-13T00:06:38.374Z,99924.83
2017-05-13T00:09:10.129Z,99922.59
2017-05-13T00:11:36.525Z,99921.79
2017-05-13T00:14:03.004Z,99924.06
2017-05-13T00:16:29.894Z,99915.22
2017-05-13T00:18:57.669Z,99913.24
2017-05-13T00:21:24.075Z,99912.48
2017-05-13T00:23:50.743Z,99917.98
2017-05-13T00:26:18.257Z,99926.50
2017-05-13T00:28:44.655Z,99933.34
2017-05-13T00:31:14.123Z,99938.02
2017-05-13T00:33:40.874Z,99927.60
2017-05-13T00:36:07.360Z,99929.79
2017-05-13T00:38:39.766Z,99936.73
2017-05-13T00:41:07.059Z,99936.64
2017-05-13T00:43:33.835Z,99931.89
2017-05-13T00:46:00.391Z,99923.23
2017-05-13T00:48:26.977Z,99922.63
2017-05-13T00:50:53.314Z,99919.55
2017-05-13T00:53:19.807Z,99924.16
2017-05-13T00:55:47.401Z,99921.83
2017-05-13T00:58:13.871Z,99917.43
2017-05-13T01:00:41.144Z,99920.80
2017-05-13T01:03:09.844Z,99920.52
2017-05-13T01:05:36.996Z,99919.83
2017-05-13T01:08:03.558Z,99922.81
2017-05-13T01:10:35.482Z,99921.66
2017-05-13T01:13:07.050Z,99922.63
2017-05-13T01:15:37.333Z,99921.28
2017-05-13T01:18:03.706Z,99916.36
2017-05-13T01:20:30.080Z,99923.21
2017-05-13T01:23:02.503Z,99923.55
2017-05-13T01:25:29.577Z,99921.01
2017-05-13T01:27:56.570Z,99931.77
2017-05-13T01:30:23.811Z,99927.31
2017-05-13T01:32:50.521Z,99931.03
2017-05-13T01:35:16.918Z,99926.56
2017-05-13T01:37:43.378Z,99927.37
2017-05-13T01:40:09.949Z,99922.30
2017-05-13T01:42:37.563Z,99921.47
2017-05-13T01:45:04.037Z,99929.62
2017-05-13T01:47:30.372Z,99933.34
2017-05-13T01:49:58.423Z,99939.08
2017-05-13T01:52:30.392Z,99934.78
2017-05-13T01:55:02.725Z,99934.94
2017-05-13T01:57:29.909Z,99936.30
2017-05-13T02:00:01.305Z,99938.68
2017-05-13T02:02:28.040Z,99943.50
2017-05-13T02:04:55.567Z,99946.41
2017-05-13T02:07:28.638Z,99947.63
2017-05-13T02:09:56.064Z,99950.00
2017-05-13T02:12:22.698Z,99960.72
2017-05-13T02:14:54.761Z,99960.94
2017-05-13T02:17:22.062Z,99958.56
2017-05-13T02:19:48.613Z,99960.53
2017-05-13T02:22:16.231Z,99959.96
2017-05-13T02:24:43.024Z,99961.97
2017-05-13T02:27:09.479Z,99966.75
2017-05-13T02:29:36.322Z,99958.34
2017-05-13T02:32:02.842Z,99965.70
2017-05-13T02:34:29.194Z,99966.86
2017-05-13T02:36:56.532Z,99964.67
2017-05-13T02:39:23.039Z,99965.84
2017-05-13T02:41:49.795Z,99967.98
2017-05-13T02:44:16.427Z,99976.16
2017-05-13T02:46:42.811Z,99984.84
2017-05-13T02:49:10.152Z,99979.34
2017-05-13T02:51:37.553Z,99982.49
2017-05-13T02:54:09.445Z,99985.50
2017-05-13T02:56:41.568Z,99994.16
2017-05-13T02:59:07.920Z,99994.25
2017-05-13T03:01:34.524Z,99990.73
2017-05-13T03:04:01.264Z,100001.39
2017-05-13T03:06:28.079Z,100003.22
2017-05-13T03:08:59.776Z,99990.31
2017-05-13T03:11:27.536Z,100002.85
2017-05-13T03:13:55.091Z,99997.03
2017-05-13T03:16:25.304Z,99998.94
2017-05-13T03:18:51.665Z,99997.45
2017-05-13T03:21:21.257Z,99994.84
2017-05-13T03:23:47.700Z,99994.97
2017-05-13T03:26:14.825Z,99997.77
2017-05-13T03:28:41.664Z,99993.89
2017-05-13T03:31:08.422Z,99990.50
2017-05-13T03:33:41.194Z,100002.46
2017-05-13T03:36:08.596Z,99999.50
2017-05-13T03:38:34.927Z,99996.86
2017-05-13T03:41:01.346Z,99996.42
2017-05-13T03:43:28.049Z,100001.25
2017-05-13T03:45:55.880Z,99999.85
2017-05-13T03:48:22.389Z,100003.89
2017-05-13T03:50:48.817Z,100003.68
2017-05-13T03:53:16.291Z,100007.05
2017-05-13T03:55:43.247Z,100012.55
2017-05-13T03:58:11.162Z,100010.45
2017-05-13T04:00:37.589Z,100009.95
2017-05-13T04:03:04.575Z,100012.80
2017-05-13T04:05:31.823Z,100019.05
2017-05-13T04:07:58.591Z,100018.94
2017-05-13T04:10:25.192Z,100023.61
2017-05-13T04:12:51.568Z,100025.52
2017-05-13T04:15:23.290Z,100026.01
2017-05-13T04:17:49.919Z,100028.69
2017-05-13T04:20:17.126Z,100038.14
2017-05-13T04:22:44.605Z,100036.59
2017-05-13T04:25:11.462Z,100037.90
2017-05-13T04:27:42.998Z,100048.36
2017-05-13T04:30:09.511Z,100052.45
2017-05-13T04:32:36.028Z,100056.69
2017-05-13T04:35:02.600Z,100055.16
2017-05-13T04:37:29.032Z,100057.53
2017-05-13T04:39:55.430Z,100054.19
2017-05-13T04:42:25.835Z,100062.60
2017-05-13T04:45:03.400Z,100069.44
2017-05-13T04:47:29.728Z,100071.16
2017-05-13T04:49:57.578Z,100077.05
2017-05-13T04:52:26.944Z,100078.52
2017-05-13T04:54:53.367Z,100075.86
2017-05-13T04:57:19.885Z,100085.79
2017-05-13T04:59:49.328Z,100075.69
2017-05-13T05:02:15.675Z,100079.88
2017-05-13T05:04:42.168Z,100082.83
2017-05-13T05:07:09.564Z,100085.95
2017-05-13T05:09:35.863Z,100088.88
2017-05-13T05:12:02.182Z,100090.38
2017-05-13T05:14:33.795Z,100093.88
2017-05-13T05:17:00.348Z,100097.33
2017-05-13T05:19:29.331Z,100096.88
2017-05-13T05:21:55.794Z,100105.28
2017-05-13T05:24:27.360Z,100104.74
2017-05-13T05:26:58.949Z,100104.41
2017-05-13T05:29:25.426Z,100107.64
2017-05-13T05:31:52.747Z,100106.48
2017-05-13T05:34:25.125Z,100103.00
2017-05-13T05:36:51.967Z,100104.28
2017-05-13T05:39:18.555Z,100106.67
2017-05-13T05:41:45.066Z,100106.45
2017-05-13T05:44:11.473Z,100107.52
2017-05-13T05:46:37.955Z,100110.27
2017-05-13T05:49:04.748Z,100118.56
2017-05-13T05:51:31.238Z,100121.04
2017-05-13T05:53:58.127Z,100121.23
2017-05-13T05:56:24.998Z,100126.85
2017-05-13T05:58:51.504Z,100126.52
2017-05-13T06:01:17.830Z,100131.38
2017-05-13T06:03:44.254Z,100136.95
2017-05-13T06:06:17.754Z,100142.67
2017-05-13T06:08:44.162Z,100147.39
2017-05-13T06:11:12.017Z,100149.78
2017-05-13T06:13:38.733Z,100156.44
2017-05-13T06:16:05.084Z,100159.73
2017-05-13T06:18:31.568Z,100165.07
2017-05-13T06:21:01.982Z,100162.83
2017-05-13T06:23:29.108Z,100160.98
2017-05-13T06:26:00.659Z,100156.41
2017-05-13T06:28:27.801Z,100165.45
2017-05-13T06:30:59.602Z,100160.67
2017-05-13T06:33:26.030Z,100175.45
2017-05-13T06:35:53.198Z,100166.81
2017-05-13T06:38:20.681Z,100166.78
2017-05-13T06:40:52.407Z,100163.41
2017-05-13T06:43:18.918Z,100169.88
2017-05-13T06:45:47.318Z,100165.68
2017-05-13T06:48:14.151Z,100176.61
2017-05-13T06:50:45.590Z,100178.95
2017-05-13T06:53:12.419Z,100187.83
2017-05-13T06:55:38.823Z,100183.95
2017-05-13T06:58:05.221Z,100190.90
2017-05-13T07:00:35.547Z,100191.55
2017-05-13T07:03:03.333Z,100193.16
2017-05-13T07:05:34.114Z,100194.19
2017-05-13T07:08:08.644Z,100190.92
2017-05-13T07:10:35.320Z,100203.98
2017-05-13T07:13:02.512Z,100204.73
2017-05-13T07:15:34.995Z,100209.47
2017-05-13T07:18:06.716Z,100214.83
2017-05-13T07:20:33.544Z,100218.38
2017-05-13T07:23:00.478Z,100223.63
2017-05-13T07:25:31.939Z,100236.45
2017-05-13T07:27:58.564Z,100231.64
2017-05-13T07:30:28.021Z,100232.67
2017-05-13T07:32:54.338Z,100235.08
2017-05-13T07:35:21.378Z,100239.25
2017-05-13T07:37:59.148Z,100243.40
2017-05-13T07:40:25.586Z,100240.80
2017-05-13T07:42:52.024Z,100240.08
2017-05-13T07:45:19.422Z,100241.19
2017-05-13T07:47:45.922Z,100245.05
2017-05-13T07:50:12.414Z,100242.10
2017-05-13T07:52:38.847Z,100245.83
2017-05-13T07:55:06.651Z,100248.65
2017-05-13T07:57:33.048Z,100248.71
2017-05-13T07:59:59.524Z,100244.80
2017-05-13T08:02:25.965Z,100255.70
2017-05-13T08:04:52.314Z,100253.86
2017-05-13T08:07:18.776Z,100258.69
2017-05-13T08:09:50.253Z,100256.92
2017-05-13T08:12:16.600Z,100258.97
2017-05-13T08:14:43.453Z,100267.93
2017-05-13T08:17:09.905Z,100272.43
2017-05-13T08:19:36.316Z,100282.05
2017-05-13T08:22:02.809Z,100269.83
2017-05-13T08:24:29.166Z,100277.17
2017-05-13T08:26:56.797Z,100277.22
2017-05-13T08:29:24.259Z,100280.95
2017-05-13T08:31:51.633Z,100290.50
2017-05-13T08:34:19.030Z,100287.81
2017-05-13T08:36:48.382Z,100293.02
2017-05-13T08:39:15.196Z,100293.64
2017-05-13T08:41:41.586Z,100293.36
2017-05-13T08:44:13.133Z,100305.72
2017-05-13T08:46:39.533Z,100303.63
2017-05-13T08:49:05.880Z,100303.86
2017-05-13T08:51:32.202Z,100303.90
2017-05-13T08:53:58.890Z,100309.78
2017-05-13T08:56:25.668Z,100306.67
2017-05-13T08:58:52.002Z,100309.18
2017-05-13T09:01:23.850Z,100314.00
2017-05-13T09:03:50.215Z,100316.83
2017-05-13T09:06:16.559Z,100319.87
2017-05-13T09:08:44.018Z,100319.22
2017-05-13T09:11:10.517Z,100326.93
2017-05-13T09:13:37.875Z,100334.91
2017-05-13T09:16:04.270Z,100336.49
2017-05-13T09:18:30.701Z,100336.20
2017-05-13T09:21:02.464Z,100338.94
2017-05-13T09:23:34.169Z,100339.23
2017-05-13T09:26:01.270Z,100344.88
2017-05-13T09:28:27.650Z,100352.92
2017-05-13T09:30:59.506Z,100347.80
2017-05-13T09:33:26.020Z,100348.55
2017-05-13T09:35:52.917Z,100365.00
2017-05-13T09:38:19.255Z,100364.41
2017-05-13T09:40:50.876Z,100358.95
2017-05-13T09:43:17.519Z,100359.95
2017-05-13T09:45:44.076Z,100368.17
2017-05-13T09:48:11.584Z,100362.73
2017-05-13T09:50:37.934Z,100363.23
2017-05-13T09:53:09.839Z,100362.42
2017-05-13T09:55:41.333Z,100361.64
2017-05-13T09:58:07.788Z,100362.94
2017-05-13T10:00:34.163Z,100355.81
2017-05-13T10:03:00.855Z,100369.02
2017-05-13T10:05:27.528Z,100367.39
2017-05-13T10:07:53.911Z,100363.81
2017-05-13T10:10:20.252Z,100360.25
2017-05-13T10:12:46.595Z,100351.12
2017-05-13T10:15:18.530Z,100359.38
2017-05-13T10:17:44.937Z,100356.63
2017-05-13T10:20:11.238Z,100363.23
2017-05-13T10:22:38.228Z,100359.58
2017-05-13T10:25:04.568Z,100362.52
2017-05-13T10:27:31.718Z,100364.02
2017-05-13T10:29:59.652Z,100362.66
2017-05-13T10:32:26.084Z,100357.05
2017-05-13T10:34:52.432Z,100361.91
2017-05-13T10:37:18.729Z,100351.69
2017-05-13T10:39:45.849Z,100354.53
2017-05-13T10:42:12.331Z,100358.30
2017-05-13T10:44:39.869Z,100351.47
2017-05-13T10:47:06.259Z,100350.81
2017-05-13T10:49:37.951Z,100356.48
2017-05-13T10:52:04.652Z,100348.19
2017-05-13T10:54:30.990Z,100341.06
2017-05-13T10:56:57.398Z,100342.45
2017-05-13T10:59:23.979Z,100348.80
2017-05-13T11:01:50.314Z,100342.61
2017-05-13T11:04:16.778Z,100341.21
2017-05-13T11:06:43.569Z,100341.67
2017-05-13T11:09:16.193Z,100345.73
2017-05-13T11:11:43.565Z,100348.44
2017-05-13T11:14:09.892Z,100337.97
2017-05-13T11:16:36.941Z,100343.95
2017-05-13T11:19:04.157Z,100347.91
2017-05-13T11:21:30.567Z,100343.35
2017-05-13T11:23:56.883Z,100332.48
2017-05-13T11:26:23.582Z,100332.95
2017-05-13T11:28:49.981Z,100334.22
2017-05-13T11:31:21.895Z,100333.38
2017-05-13T11:33:49.192Z,100332.20
2017-05-13T11:36:15.665Z,100328.67
2017-05-13T11:38:42.918Z,100334.20
2017-05-13T11:41:14.519Z,100331.94
2017-05-13T11:43:41.132Z,100345.63
2017-05-13T11:46:09.112Z,100346.44
2017-05-13T11:48:35.534Z,100337.96
2017-05-13T11:51:01.944Z,100342.42
2017-05-13T11:53:28.776Z,100338.44
2017-05-13T11:55:55.984Z,100337.09
2017-05-13T11:58:27.560Z,100339.14
2017-05-13T12:00:53.871Z,100340.98
2017-05-13T12:03:20.251Z,100343.40
2017-05-13T12:05:46.959Z,100339.49
2017-05-13T12:08:13.847Z,100342.45
2017-05-13T12:10:40.285Z,100339.06
2017-05-13T12:13:06.649Z,100343.40
2017-05-13T12:15:38.648Z,100332.64
2017-05-13T12:18:05.376Z,100345.89
2017-05-13T12:20:33.381Z,100347.17
2017-05-13T12:23:05.040Z,100345.11
2017-05-13T12:25:31.609Z,100347.52
2017-05-13T12:27:58.014Z,100351.06
2017-05-13T12:30:29.672Z,100342.13
2017-05-13T12:32:56.012Z,100339.73
2017-05-13T12:35:22.398Z,100330.62
2017-05-13T12:37:54.060Z,100344.18
2017-05-13T12:40:21.163Z,100343.66
2017-05-13T12:42:47.550Z,100347.16
2017-05-13T12:45:13.886Z,100343.14
2017-05-13T12:47:40.296Z,100345.25
2017-05-13T12:50:06.706Z,100348.15
2017-05-13T12:52:33.079Z,100340.74
2017-05-13T12:54:59.991Z,100346.34
2017-05-13T12:57:37.562Z,100344.41
2017-05-13T13:00:10.132Z,100345.18
2017-05-13T13:02:37.325Z,100358.61
2017-05-13T13:05:06.868Z,100348.28
2017-05-13T13:07:33.650Z,100350.78
2017-05-13T13:10:00.204Z,100355.75
2017-05-13T13:12:26.688Z,100351.00
2017-05-13T13:14:54.070Z,100354.02
2017-05-13T13:17:26.457Z,100353.59
2017-05-13T13:19:53.034Z,100355.52
2017-05-13T13:22:19.597Z,100356.70
2017-05-13T13:24:51.364Z,100356.55
2017-05-13T13:27:17.721Z,100369.91
2017-05-13T13:29:44.371Z,100358.47
2017-05-13T13:32:11.119Z,100358.86
2017-05-13T13:34:37.468Z,100362.69
2017-05-13T13:37:03.770Z,100361.56
2017-05-13T13:39:30.250Z,100357.58
2017-05-13T13:41:57.651Z,100356.67
2017-05-13T13:44:24.071Z,100345.45
2017-05-13T13:46:55.632Z,100345.31
2017-05-13T13:49:27.687Z,100350.15
2017-05-13T13:51:54.070Z,100350.84
2017-05-13T13:54:25.559Z,100355.09
2017-05-13T13:56:52.034Z,100350.90
2017-05-13T13:59:18.349Z,100354.51
2017-05-13T14:01:44.738Z,100349.92
2017-05-13T14:04:11.161Z,100350.02
2017-05-13T14:06:37.472Z,100346.64
2017-05-13T14:09:09.081Z,100355.26
2017-05-13T14:11:35.402Z,100352.72
2017-05-13T14:14:07.000Z,100345.00
2017-05-13T14:16:38.879Z,100343.96
2017-05-13T14:19:11.338Z,100344.06
2017-05-13T14:21:37.789Z,100340.88
2017-05-13T14:24:09.399Z,100346.25
2017-05-13T14:26:35.824Z,100349.95
2017-05-13T14:29:02.603Z,100349.97
2017-05-13T14:31:28.995Z,100348.20
2017-05-13T14:33:55.380Z,100353.37
2017-05-13T14:36:21.727Z,100347.38
2017-05-13T14:38:53.447Z,100361.69
2017-05-13T14:41:20.191Z,100359.13
2017-05-13T14:43:51.737Z,100356.52
2017-05-13T14:46:20.124Z,100354.34
2017-05-13T14:48:47.293Z,100354.70
2017-05-13T14:51:14.501Z,100351.44
2017-05-13T14:53:40.904Z,100355.84
2017-05-13T14:56:07.676Z,100348.92
2017-05-13T14:58:41.421Z,100352.95
2017-05-13T15:01:13.830Z,100360.86
2017-05-13T15:03:45.402Z,100368.17
2017-05-13T15:06:11.746Z,100361.03
2017-05-13T15:08:43.293Z,100357.22
2017-05-13T15:11:09.695Z,100359.37
2017-05-13T15:13:36.271Z,100350.19
2017-05-13T15:16:02.578Z,100353.88
2017-05-13T15:18:34.759Z,100354.69
2017-05-13T15:21:06.421Z,100365.84
2017-05-13T15:23:33.929Z,100372.30
2017-05-13T15:26:05.429Z,100370.75
2017-05-13T15:28:32.634Z,100371.91
2017-05-13T15:30:59.489Z,100373.72
2017-05-13T15:33:31.154Z,100371.70
2017-05-13T15:35:57.890Z,100373.20
2017-05-13T15:38:29.360Z,100375.66
2017-05-13T15:40:58.857Z,100375.67
2017-05-13T15:43:30.427Z,100373.67
2017-05-13T15:45:56.882Z,100378.96
2017-05-13T15:48:28.634Z,100373.44
2017-05-13T15:50:55.190Z,100372.90
2017-05-13T15:53:22.039Z,100370.83
2017-05-13T15:55:48.754Z,100375.27
2017-05-13T15:58:20.698Z,100380.45
2017-05-13T16:00:47.131Z,100371.17
2017-05-13T16:03:17.952Z,100377.12
2017-05-13T16:05:49.418Z,100377.13
2017-05-13T16:08:16.220Z,100378.80
2017-05-13T16:10:42.586Z,100385.36
2017-05-13T16:13:08.956Z,100387.80
2017-05-13T16:15:35.610Z,100392.25
2017-05-13T16:18:02.389Z,100394.03
2017-05-13T16:20:34.104Z,100389.47
2017-05-13T16:23:00.534Z,100395.62
2017-05-13T16:25:32.115Z,100399.33
2017-05-13T16:27:58.823Z,100403.23
2017-05-13T16:30:25.482Z,100404.67
2017-05-13T16:32:51.873Z,100401.77
2017-05-13T16:35:18.823Z,100417.09
2017-05-13T16:37:45.772Z,100413.41
2017-05-13T16:40:17.258Z,100413.00
2017-05-13T16:42:44.191Z,100411.83
2017-05-13T16:45:11.683Z,100417.13
2017-05-13T16:47:38.011Z,100425.03
2017-05-13T16:50:09.977Z,100421.59
2017-05-13T16:52:37.100Z,100422.96
2017-05-13T16:55:03.575Z,100432.19
2017-05-13T16:57:30.354Z,100440.36
2017-05-13T16:59:57.019Z,100440.41
2017-05-13T17:02:23.653Z,100446.17
2017-05-13T17:04:51.944Z,100446.91
2017-05-13T17:07:18.775Z,100451.31
2017-05-13T17:09:50.345Z,100454.98
2017-05-13T17:12:19.791Z,100456.55
2017-05-13T17:14:46.127Z,100460.41
2017-05-13T17:17:12.607Z,100458.41
2017-05-13T17:19:39.192Z,100468.47
2017-05-13T17:22:05.877Z,100460.84
2017-05-13T17:24:33.140Z,100464.52
2017-05-13T17:26:59.836Z,100463.19
2017-05-13T17:29:26.189Z,100469.73
2017-05-13T17:31:52.875Z,100470.97
2017-05-13T17:34:19.682Z,100474.90
2017-05-13T17:36:46.201Z,100477.77
2017-05-13T17:39:17.819Z,100476.34
2017-05-13T17:41:44.261Z,100490.50
2017-05-13T17:44:10.695Z,100489.97
2017-05-13T17:46:37.055Z,100496.33
2017-05-13T17:49:06.603Z,100494.16
2017-05-13T17:51:33.028Z,100503.50
2017-05-13T17:53:59.883Z,100508.95
2017-05-13T17:56:31.494Z,100514.89
2017-05-13T17:58:59.515Z,100521.17
2017-05-13T18:01:25.907Z,100530.19
2017-05-13T18:03:52.730Z,100528.86
2017-05-13T18:06:19.056Z,100541.47
2017-05-13T18:08:46.505Z,100539.16
2017-05-13T18:11:16.960Z,100540.02
2017-05-13T18:13:43.390Z,100541.42
2017-05-13T18:16:09.882Z,100555.62
2017-05-13T18:18:36.319Z,100545.63
2017-05-13T18:21:07.954Z,100540.12
2017-05-13T18:23:37.518Z,100539.14
2017-05-13T18:26:05.009Z,100546.19
2017-05-13T18:28:36.742Z,100545.89
2017-05-13T18:31:03.171Z,100545.55
2017-05-13T18:33:30.051Z,100548.03
2017-05-13T18:36:02.151Z,100553.28
2017-05-13T18:38:34.553Z,100561.63
2017-05-13T18:41:01.002Z,100565.28
2017-05-13T18:43:27.823Z,100572.61
2017-05-13T18:45:54.194Z,100571.95
2017-05-13T18:48:26.241Z,100575.92
2017-05-13T18:50:52.780Z,100588.69
2017-05-13T18:53:27.198Z,100584.86
2017-05-13T18:55:53.933Z,100591.81
2017-05-13T18:58:27.815Z,100592.77
2017-05-13T19:00:54.138Z,100603.47
2017-05-13T19:03:20.987Z,100604.16
2017-05-13T19:05:47.336Z,100613.64
2017-05-13T19:08:14.346Z,100616.17
2017-05-13T19:10:41.898Z,100620.39
2017-05-13T19:13:08.576Z,100621.82
2017-05-13T19:15:35.448Z,100632.12
2017-05-13T19:18:07.909Z,100635.88
2017-05-13T19:20:34.341Z,100641.27
2017-05-13T19:23:00.691Z,100643.45
2017-05-13T19:25:27.194Z,100648.41
2017-05-13T19:27:54.050Z,100653.60
2017-05-13T19:30:20.438Z,100657.94
2017-05-13T19:32:52.069Z,100662.31
2017-05-13T19:35:18.415Z,100676.20
2017-05-13T19:37:44.881Z,100683.11
2017-05-13T19:40:14.656Z,100683.44
2017-05-13T19:42:41.248Z,100685.27
2017-05-13T19:45:07.729Z,100697.60
2017-05-13T19:47:34.628Z,100713.56
2017-05-13T19:50:06.091Z,100724.72
2017-05-13T19:52:32.656Z,100743.91
2017-05-13T19:55:00.366Z,100749.53
2017-05-13T19:57:26.803Z,100746.98
2017-05-13T19:59:54.118Z,100748.05
2017-05-13T20:02:21.975Z,100756.52
2017-05-13T20:04:48.494Z,100761.31
2017-05-13T20:07:15.517Z,100766.88
2017-05-13T20:09:41.946Z,100759.16
2017-05-13T20:12:09.374Z,100765.66
2017-05-13T20:14:36.040Z,100776.73
2017-05-13T20:17:03.573Z,100785.39
2017-05-13T20:19:31.036Z,100785.59
2017-05-13T20:21:57.745Z,100805.36
2017-05-13T20:24:31.314Z,100801.02
2017-05-13T20:29:36.950Z,100827.37
2017-05-13T20:32:03.372Z,100821.78
2017-05-13T20:34:30.776Z,100823.49
2017-05-13T20:36:56.165Z,100824.15
2017-05-13T20:39:23.488Z,100815.97
2017-05-13T20:41:49.835Z,100811.65
2017-05-13T20:44:16.250Z,100814.64
2017-05-13T20:46:42.609Z,100818.95
2017-05-13T20:49:08.963Z,100828.97
2017-05-13T20:51:35.353Z,100832.47
2017-05-13T20:54:01.713Z,100836.30
2017-05-13T20:56:28.183Z,100837.98
2017-05-13T20:58:54.576Z,100827.82
2017-05-13T21:01:20.968Z,100828.00
2017-05-13T21:03:47.310Z,100840.48
2017-05-13T21:06:13.648Z,100837.45
2017-05-13T21:08:40.023Z,100843.73
2017-05-13T21:11:06.441Z,100838.50
2017-05-13T21:13:32.788Z,100843.16
2017-05-13T21:15:59.190Z,100845.73
2017-05-13T21:18:25.520Z,100852.64
2017-05-13T21:20:51.893Z,100857.00
2017-05-13T21:23:18.296Z,100859.25
2017-05-13T21:25:44.645Z,100859.92
2017-05-13T21:28:11.026Z,100871.84
2017-05-13T21:30:37.365Z,100868.70
2017-05-13T21:33:03.785Z,100870.83
2017-05-13T21:35:30.155Z,100869.30
2017-05-13T21:38:02.703Z,100872.33
2017-05-13T21:40:29.035Z,100880.30
2017-05-13T21:42:55.399Z,100872.09
2017-05-13T21:45:21.749Z,100873.73
2017-05-13T21:47:48.084Z,100878.11
2017-05-13T21:50:14.441Z,100874.61
2017-05-13T21:52:40.765Z,100879.20
2017-05-13T21:55:07.157Z,100882.69
2017-05-13T21:57:33.535Z,100883.13
2017-05-13T21:59:59.885Z,100876.38
2017-05-13T22:02:26.198Z,100877.86
2017-05-13T22:04:52.530Z,100879.39
2017-05-13T22:07:18.929Z,100884.42
2017-05-13T22:09:45.246Z,100883.08
2017-05-13T22:12:11.571Z,100887.14
2017-05-13T22:14:37.896Z,100888.52
2017-05-13T22:17:04.262Z,100897.14
2017-05-13T22:19:30.595Z,100897.08
2017-05-13T22:21:56.987Z,100902.86
2017-05-13T22:24:23.352Z,100896.75
2017-05-13T22:26:49.703Z,100911.16
2017-05-13T22:29:16.049Z,100915.81
2017-05-13T22:31:42.390Z,100910.70
2017-05-13T22:34:08.742Z,100906.47
2017-05-13T22:36:35.073Z,100910.89
2017-05-13T22:39:01.421Z,100906.64
2017-05-13T22:41:27.745Z,100921.01
2017-05-13T22:43:54.101Z,100924.89
2017-05-13T22:46:20.466Z,100922.70
2017-05-13T22:48:46.798Z,100929.08
2017-05-13T22:51:13.147Z,100932.18
2017-05-13T22:53:39.470Z,100939.23
2017-05-13T22:56:05.843Z,100932.03
2017-05-13T22:58:32.214Z,100936.59
2017-05-13T23:00:58.594Z,100939.75
2017-05-13T23:03:24.980Z,100939.77
2017-05-13T23:05:51.309Z,100936.64
2017-05-13T23:08:17.988Z,100936.73
2017-05-13T23:10:44.377Z,100936.23
2017-05-13T23:13:10.709Z,100938.98
2017-05-13T23:15:37.043Z,100939.25
2017-05-13T23:18:03.423Z,100943.06
2017-05-13T23:20:29.780Z,100951.77
2017-05-13T23:22:56.115Z,100958.97
2017-05-13T23:25:22.804Z,100948.30
2017-05-13T23:27:50.201Z,100950.33
2017-05-13T23:30:17.424Z,100952.11
2017-05-13T23:32:43.810Z,100953.70
2017-05-13T23:35:10.172Z,100956.97
2017-05-13T23:37:36.503Z,100965.05
2017-05-13T23:40:03.160Z,100962.94
2017-05-13T23:42:29.600Z,100963.42
2017-05-13T23:44:56.018Z,100962.31
2017-05-13T23:47:22.882Z,100965.72
2017-05-13T23:49:49.214Z,100973.14
2017-05-13T23:52:15.997Z,100974.55
2017-05-13T23:54:42.910Z,100979.75
2017-05-13T23:57:10.188Z,100974.66
2017-05-13T23:59:37.231Z,100979.03
